Date,TemperatureHighF,TemperatureAvgF,TemperatureLowF,DewpointHighF,DewpointAvgF,DewpointLowF,HumidityHigh,HumidityAvg,HumidityLow,PressureMaxIn,PressureMinIn,WindSpeedMaxMPH,WindSpeedAvgMPH,GustSpeedMaxMPH,PrecipitationSumIn
2013-1-21,28.4,24.6,19.4,14.3,5.2,-2.9,73,44,27,29.92,29.69,7,0,7,0.00
2013-1-22,24.5,19.7,14.1,15.5,9.2,3.1,74,64,48,29.73,29.61,6,1,7,0.00
2013-1-24,19.9,11.5,-0.2,-6.0,-9.6,-13.8,52,38,26,30.00,29.82,10,1,10,0.00
2013-1-25,21.1,11.5,-0.8,4.3,-3.4,-10.5,73,51,35,30.09,29.92,4,0,5,0.00
2013-1-26,24.8,17.0,10.9,4.3,-2.5,-8.6,57,42,25,30.02,29.85,9,1,11,0.00
2013-1-27,27.9,16.6,6.3,6.5,-1.3,-8.0,67,46,30,30.29,30.01,7,0,10,0.00
2013-1-28,29.8,20.0,9.2,20.8,8.8,-8.2,91,64,33,30.30,29.93,3,0,4,0.00
2013-1-29,34.0,27.7,22.1,30.3,24.5,19.6,94,88,72,30.07,29.92,4,0,4,0.00
2013-1-30,48.0,41.5,31.8,47.5,40.8,30.3,99,97,94,30.01,29.31,12,1,15,0.00
2013-1-31,51.0,47.8,43.9,50.7,47.5,43.6,99,99,98,29.31,28.72,15,2,18,0.00
2013-2-2,26.3,24.9,23.8,13.1,10.7,7.4,62,54,45,29.97,29.91,9,0,10,0.00
2013-2-3,28.7,25.4,21.9,18.8,15.1,12.2,81,65,55,29.91,29.55,6,0,6,0.00
2013-2-4,25.1,21.3,17.5,13.6,8.8,-4.1,77,59,36,29.74,29.54,4,0,5,0.00
2013-2-5,26.1,18.6,10.0,12.4,2.7,-4.7,67,50,31,29.89,29.74,6,0,7,0.00
2013-2-6,27.0,23.4,20.5,13.2,3.3,-5.9,70,42,30,30.14,29.82,5,1,6,0.00
2013-2-7,26.0,18.6,12.3,5.2,-2.9,-8.6,54,39,25,30.42,30.14,6,0,7,0.00
2013-2-8,18.9,16.1,12.9,16.4,12.3,2.6,91,85,50,30.41,29.69,14,1,15,0.00
2013-2-9,18.8,14.8,11.6,15.6,11.4,8.5,90,86,81,29.98,29.49,18,4,18,0.00
2013-2-10,34.1,21.3,9.2,24.4,13.3,4.7,82,72,50,30.22,29.98,9,0,10,0.00
2013-2-11,39.9,25.6,12.6,39.1,22.0,5.7,97,86,64,30.21,29.45,11,0,12,0.00
2013-2-12,47.9,36.2,30.0,39.5,30.0,26.6,98,80,48,29.65,29.38,9,0,10,0.00
2013-2-13,46.2,34.7,26.4,28.5,24.8,21.8,87,68,41,29.69,29.58,7,0,7,0.00
2013-2-14,43.2,35.3,28.5,27.1,23.1,18.2,86,62,37,29.86,29.57,7,0,7,0.00
2013-2-15,44.5,34.8,24.7,36.2,30.6,22.5,95,85,69,29.86,29.77,12,0,12,0.00
2013-2-16,38.2,33.4,28.8,34.3,28.7,13.0,95,83,53,29.80,29.63,7,0,9,0.00
2013-2-17,28.8,22.3,18.8,17.9,11.2,1.1,89,64,44,29.62,29.07,15,3,18,0.00
2013-2-18,33.4,22.9,14.3,9.3,1.1,-4.6,57,39,23,29.92,29.35,16,1,16,0.00
2013-2-19,42.3,32.5,18.0,41.5,17.8,-3.9,97,58,26,29.97,29.42,11,1,12,0.00
2013-2-20,42.1,33.9,26.9,41.1,26.4,15.7,97,75,58,29.54,29.31,9,1,10,0.00
2013-2-21,32.5,27.1,23.2,19.7,14.6,8.8,70,59,41,30.01,29.54,11,1,12,0.00
2013-2-22,41.5,31.7,25.1,23.0,20.7,18.7,79,65,44,30.26,30.01,6,0,9,0.00
2013-2-23,28.7,28.2,27.9,22.5,22.2,21.8,79,78,77,30.22,30.21,0,0,0,0.00
2013-2-24,32.4,30.5,29.0,31.4,29.7,28.3,97,97,96,29.77,29.63,1,0,2,0.00
2013-2-25,41.3,33.0,25.4,35.5,29.8,24.4,97,89,66,30.11,29.77,4,0,4,0.00
2013-2-26,44.9,36.2,31.8,35.0,30.0,26.7,97,80,51,30.23,30.10,5,0,6,0.00
2013-2-27,38.8,36.0,32.8,35.4,32.7,28.6,97,88,72,30.11,29.48,20,4,23,0.00
2013-2-28,41.6,36.3,32.7,41.1,35.3,30.9,98,96,93,29.48,29.39,8,0,12,0.00
2013-3-1,36.9,33.6,31.8,31.2,29.6,28.4,95,85,72,29.54,29.40,9,0,9,0.00
2013-3-2,44.5,35.4,31.0,34.5,30.6,27.8,97,84,53,29.52,29.46,7,0,7,0.00
2013-3-3,42.5,35.7,31.2,36.7,30.8,25.9,97,83,66,29.48,29.40,4,0,5,0.00
2013-3-4,38.0,33.5,31.5,29.1,25.4,22.1,83,72,61,29.55,29.37,10,1,11,0.00
2013-3-5,45.4,38.1,32.4,33.9,30.3,23.4,89,73,61,29.97,29.55,12,1,13,0.00
2013-3-6,38.9,35.8,32.7,33.5,30.2,27.4,94,80,66,30.09,29.97,17,2,17,0.00
2013-3-7,35.8,33.5,30.7,29.4,26.6,25.0,90,76,66,30.06,29.93,14,2,16,0.00
2013-3-8,43.1,35.2,28.7,28.4,26.3,21.6,95,72,46,30.05,29.88,11,2,13,0.00
2013-3-9,45.1,35.9,27.3,30.4,26.4,22.6,93,69,49,30.25,30.05,10,1,13,0.00
2013-3-10,41.2,33.9,27.6,31.2,28.3,24.8,94,80,63,30.30,30.18,7,0,8,0.00
2013-3-12,46.4,45.9,45.1,45.9,45.4,44.6,98,98,97,29.65,29.60,18,4,19,0.00
2013-3-13,45.1,42.5,40.5,44.6,42.0,39.8,98,98,98,29.60,29.55,11,0,14,0.00
2013-3-15,35.5,30.9,28.1,24.0,20.4,17.1,82,65,48,29.50,29.48,3,0,3,0.00
2013-3-16,29.8,28.5,27.6,24.7,19.1,13.4,82,68,54,29.60,29.50,6,0,6,0.00
2013-3-20,34.0,30.4,28.2,25.2,23.2,21.3,77,74,67,29.61,29.52,7,0,10,0.00
2013-3-21,43.2,36.0,26.6,23.2,20.8,15.9,77,55,38,29.63,29.49,6,0,7,0.00
2013-3-23,43.9,36.3,25.0,23.5,21.1,18.2,77,55,38,29.48,29.39,13,2,13,0.00
2013-3-24,48.0,45.5,40.5,26.2,24.0,21.6,54,43,36,29.65,29.59,8,1,11,0.00
2013-3-27,36.6,36.6,36.5,35.3,35.2,35.0,95,95,94,29.73,29.73,4,0,4,0.00
2013-3-28,48.6,40.9,34.3,38.8,33.1,27.9,97,76,46,29.85,29.73,7,0,10,0.00
2013-3-29,37.5,36.0,34.1,30.8,29.7,28.1,83,78,69,29.89,29.84,0,0,0,0.00
2013-3-30,48.2,37.4,31.9,33.6,29.3,18.1,87,73,49,29.96,29.88,4,0,5,0.00
2013-3-31,52.6,43.0,27.3,39.2,29.7,17.3,79,61,32,29.98,29.71,11,1,12,0.00
2013-4-1,57.5,45.6,39.2,44.7,40.9,37.2,97,85,59,29.70,29.36,10,1,14,0.00
2013-4-2,43.8,37.2,29.4,14.9,11.7,7.8,50,35,25,29.71,29.61,12,2,12,0.00
2013-4-3,39.2,31.5,28.2,17.0,14.0,9.4,59,49,29,29.93,29.69,7,0,7,0.00
2013-4-4,34.0,34.0,33.8,16.9,16.8,16.7,49,49,49,29.93,29.93,4,2,7,0.00
2013-4-14,43.9,42.6,41.1,32.9,31.7,30.8,67,65,64,30.06,30.02,5,0,5,0.00
2013-4-15,40.9,35.1,31.2,33.7,30.3,28.7,93,83,68,30.23,30.06,2,0,2,0.00
2013-7-10,65.8,65.3,64.5,65.2,64.6,63.6,98,97,97,29.69,29.66,1,0,1,0.00
2013-7-11,75.8,70.1,65.2,74.5,68.8,64.6,98,96,85,29.83,29.63,4,0,4,0.00
2013-7-12,80.1,68.8,61.0,67.2,60.3,55.7,96,76,52,30.10,29.83,10,0,10,0.00
2013-7-13,82.6,69.1,58.7,65.3,61.3,57.0,97,79,49,30.21,30.10,3,0,3,0.00
2013-7-14,88.8,74.9,64.2,72.7,67.4,63.0,97,79,53,30.17,30.07,6,0,6,0.01
2013-7-15,94.3,79.0,68.4,74.7,68.8,62.1,97,74,35,30.07,29.96,10,0,10,0.00
2013-7-16,91.4,77.3,70.4,76.9,69.0,65.6,89,77,50,30.04,29.97,5,0,5,0.00
2013-7-17,84.3,75.2,68.4,71.6,68.8,66.2,96,81,60,30.06,29.79,4,0,6,0.00
2013-7-18,86.3,75.6,68.9,75.9,70.0,66.9,97,84,62,29.90,29.81,7,0,8,0.00
2013-7-19,94.5,79.2,68.3,76.6,71.4,66.2,97,79,51,29.84,29.53,7,0,7,0.00
2013-7-20,90.5,79.4,71.5,73.2,69.2,66.1,87,72,53,29.65,29.50,6,0,6,0.00
2013-7-21,79.2,69.8,62.0,66.7,60.8,52.1,95,74,49,29.90,29.66,5,0,5,0.00
2013-7-22,71.8,65.8,62.6,65.1,62.9,60.8,97,91,76,29.93,29.80,6,0,6,0.00
2013-7-23,69.1,65.3,62.3,67.6,64.0,61.1,97,96,94,29.80,29.43,6,0,6,0.00
2013-7-24,87.2,71.4,60.2,73.4,65.3,50.3,97,82,61,29.85,29.46,11,0,11,0.00
2013-7-25,70.8,62.1,57.2,59.1,54.0,48.7,95,76,58,30.01,29.85,5,0,9,0.00
2013-7-26,70.3,65.3,60.5,65.0,62.4,59.1,96,91,81,29.97,29.78,12,0,12,0.00
2013-7-27,83.6,70.7,60.9,68.9,63.9,59.5,96,81,55,29.91,29.82,5,0,5,0.00
2013-7-28,65.5,63.5,62.3,63.7,62.2,60.8,97,96,92,29.93,29.89,6,0,6,0.00
2013-7-29,75.4,65.6,60.1,67.3,63.1,59.2,98,92,73,29.94,29.88,5,0,5,0.00
2013-7-30,79.9,68.1,59.3,67.4,62.6,58.1,97,84,60,29.96,29.89,5,0,5,0.00
2013-7-31,81.4,67.9,56.5,64.3,59.8,54.9,97,77,49,30.00,29.92,6,0,6,0.00
2013-8-1,79.8,68.7,59.0,69.0,63.6,57.6,97,85,64,29.93,29.76,7,0,10,0.00
2013-8-2,79.4,68.1,62.3,69.4,64.7,60.5,97,90,67,29.76,29.64,5,0,5,0.00
2013-8-3,82.0,68.0,59.2,65.8,60.1,56.8,97,78,45,29.71,29.61,7,0,7,0.00
2013-8-4,78.1,65.1,56.0,66.3,58.6,53.5,96,81,50,29.72,29.63,6,0,6,0.00
2013-8-5,77.9,63.6,51.7,58.2,52.0,44.7,96,69,40,29.92,29.72,7,0,7,0.00
2013-8-6,78.3,63.5,49.8,63.1,53.1,45.2,92,71,46,30.04,29.91,5,0,5,0.00
2013-8-7,79.0,64.3,52.3,66.2,59.0,50.9,97,84,58,30.07,30.01,5,0,5,0.00
2013-8-8,66.0,63.8,63.2,64.8,61.2,59.9,96,91,86,30.01,29.95,4,0,4,0.00
2013-8-10,85.1,73.6,60.5,70.1,57.6,48.7,98,60,34,29.87,29.70,7,0,9,0.00
2013-8-11,78.6,64.1,51.9,62.0,55.6,49.6,95,76,46,29.93,29.87,2,0,4,0.00
2013-8-12,78.8,66.1,55.6,64.6,58.8,53.9,96,79,53,29.89,29.78,5,0,5,0.00
2013-8-13,71.1,65.4,59.0,66.4,62.3,57.3,97,90,77,29.79,29.57,7,0,7,0.00
2013-8-14,79.2,67.0,62.4,65.4,61.9,58.0,97,86,50,29.57,29.51,5,0,6,0.00
2013-8-17,75.3,72.9,70.6,60.1,58.8,56.1,65,61,56,30.15,30.14,4,0,4,0.00
2013-8-18,74.2,64.3,54.5,64.1,58.3,52.5,96,82,61,30.15,29.93,4,0,4,0.00
2013-8-19,85.1,70.2,57.2,68.7,62.1,55.8,97,77,50,29.93,29.78,4,0,4,0.00
2013-8-20,83.2,70.6,61.0,67.8,62.7,59.3,95,78,52,29.95,29.83,5,0,5,0.00
2013-8-21,82.8,70.0,60.5,68.4,63.5,59.4,97,81,57,30.00,29.87,5,0,5,0.00
2013-8-22,85.1,71.9,62.4,70.1,65.2,60.9,95,81,56,29.87,29.65,6,0,6,0.00
2013-8-23,80.5,70.7,61.8,67.8,55.8,46.3,95,62,34,30.02,29.65,10,0,10,0.00
2013-8-24,78.6,63.8,52.5,56.1,49.8,46.4,89,62,36,30.18,30.02,5,0,6,0.00
2013-8-25,77.9,63.3,51.7,60.4,55.1,49.4,97,77,48,30.23,30.02,6,0,6,0.00
2013-8-26,80.7,67.4,60.5,70.1,62.7,56.9,96,85,64,30.02,29.74,5,0,5,0.00
2013-8-27,83.8,70.3,63.7,69.4,64.4,61.9,96,83,57,29.78,29.72,6,0,6,0.00
2013-8-28,77.4,66.5,61.3,67.6,63.3,59.9,97,90,69,29.89,29.75,6,0,6,0.00
2013-8-29,69.6,64.4,61.2,63.4,60.8,57.0,97,88,73,29.98,29.86,8,0,10,0.00
2013-8-30,78.5,66.6,57.8,66.7,61.6,55.1,95,85,65,29.91,29.66,5,0,5,0.00
2013-8-31,78.3,70.1,64.8,70.6,66.6,63.0,96,89,73,29.70,29.64,6,0,6,0.00
2013-9-1,82.6,72.2,66.3,72.1,67.8,64.9,97,87,65,29.79,29.63,4,0,4,0.00
2013-9-2,68.4,66.3,62.6,67.8,65.5,61.7,98,97,95,29.77,29.61,12,0,12,0.00
2013-9-3,75.6,69.3,64.3,72.1,63.2,-99.9,98,92,82,29.66,29.58,5,0,5,0.00
2013-9-4,82.4,67.9,57.6,62.4,58.5,53.8,97,75,40,29.76,29.63,4,0,5,0.00
2013-9-5,65.6,60.3,51.4,60.3,54.3,43.2,94,81,63,30.02,29.73,10,0,10,0.00
2013-9-6,67.8,55.6,42.8,54.1,46.4,39.2,97,74,41,30.11,29.92,5,0,6,0.00
2013-9-7,76.0,61.8,50.4,60.7,52.5,46.1,90,73,45,29.92,29.67,6,0,6,0.00
2013-9-8,69.1,59.5,53.8,60.2,43.8,-99.9,92,66,41,29.90,29.59,15,1,17,0.01
2013-9-9,68.8,61.7,57.3,55.4,46.8,41.1,89,60,45,30.09,29.78,0,0,0,0.00
2013-9-10,64.8,60.8,55.3,63.0,57.6,51.3,96,89,78,30.01,29.90,0,0,0,0.02
2013-9-11,85.9,72.1,61.5,73.6,66.6,60.2,98,84,64,29.92,29.78,0,0,0,0.54
2013-9-12,74.6,67.3,63.5,69.8,65.6,62.3,97,94,79,29.86,29.54,0,0,0,1.29
2013-9-13,69.9,64.4,57.5,68.7,63.2,56.7,98,96,86,29.60,29.46,0,0,0,1.37
2013-9-14,70.3,60.5,54.2,60.8,56.3,49.8,98,87,68,29.90,29.60,16,0,16,0.02
2013-9-15,68.6,57.1,46.2,56.6,51.3,44.8,97,82,60,30.01,29.89,0,0,0,0.00
2013-9-16,67.6,56.8,46.2,57.2,49.6,34.8,93,78,59,30.13,29.85,0,0,0,0.01
2013-9-17,65.3,51.2,41.3,49.6,41.6,34.4,92,71,45,30.29,30.14,0,0,0,0.00
2013-9-18,72.0,54.4,41.6,55.0,47.9,40.3,98,81,44,30.17,29.98,0,0,0,0.00
2013-9-19,75.8,57.7,45.1,54.5,49.7,43.8,98,78,38,30.01,29.91,0,0,0,0.00
2013-9-20,73.9,58.5,48.2,57.4,52.2,47.1,98,82,48,29.98,29.90,0,0,0,0.00
2013-9-21,67.4,59.4,51.3,61.6,57.3,50.2,98,93,79,29.90,29.63,0,0,0,0.00
2013-9-22,70.8,62.3,49.4,63.8,57.7,44.6,97,86,61,29.65,29.47,0,0,0,0.51
2013-9-23,62.7,50.3,41.8,45.2,42.1,39.3,95,75,49,29.84,29.65,0,0,0,0.00
2013-9-24,59.5,48.1,38.5,46.0,41.5,37.0,96,79,54,29.83,29.70,0,0,0,0.07
2013-9-25,60.4,52.7,43.1,49.4,45.7,41.4,96,78,60,29.86,29.74,0,0,0,0.00
2013-9-26,65.0,55.2,44.6,53.3,48.2,42.7,95,78,60,30.01,29.86,0,0,0,0.00
2013-9-27,69.1,59.0,52.3,57.0,52.0,49.3,95,78,61,30.13,30.01,0,0,0,0.14
2013-9-28,66.1,56.3,49.9,56.3,51.9,48.2,97,86,65,30.22,30.13,0,0,0,0.00
2013-9-29,62.6,53.5,47.6,54.6,50.5,46.0,97,90,70,30.15,30.01,0,0,0,0.01
2013-9-30,60.2,49.8,41.1,53.5,47.0,39.8,98,91,71,30.02,29.86,0,0,0,0.08
2013-10-1,73.3,56.8,44.8,57.6,51.0,43.7,98,83,53,29.86,29.70,0,0,0,0.10
2013-10-2,77.7,62.8,52.5,62.8,56.1,50.8,97,81,54,29.78,29.64,0,0,0,0.00
2013-10-3,71.6,60.0,50.1,55.9,52.2,47.3,97,78,43,29.94,29.78,0,0,0,0.14
2013-10-4,69.3,57.5,47.9,54.9,50.6,44.4,97,80,45,29.97,29.91,0,0,0,0.00
2013-10-5,60.7,57.0,53.8,53.3,50.4,47.6,94,79,66,30.03,29.95,0,0,0,0.00
2013-10-6,54.4,52.6,50.8,53.0,47.2,40.3,96,82,66,30.16,30.01,0,0,0,0.11
2013-10-7,64.0,59.7,53.6,63.1,58.9,52.5,98,97,96,30.07,29.67,0,0,0,0.31
2013-10-8,62.7,54.4,43.1,58.5,45.9,39.2,96,75,45,30.27,29.72,0,0,0,0.00
2013-10-9,58.4,47.1,37.9,44.9,41.1,35.8,96,81,57,30.37,30.25,0,0,0,0.00
2013-10-10,60.7,48.4,38.6,51.4,44.9,37.6,98,88,68,30.25,30.07,0,0,0,0.00
2013-10-11,64.2,53.0,44.6,53.1,48.1,43.3,97,85,50,30.07,30.00,0,0,0,0.00
2013-10-12,56.5,52.5,44.8,53.6,49.3,42.6,97,89,79,30.30,30.04,0,0,0,0.00
2013-10-13,58.0,49.5,41.5,51.2,45.5,39.4,97,87,66,30.35,30.28,0,0,0,0.00
2013-10-14,58.9,49.4,39.1,51.6,44.9,37.9,98,86,64,30.28,30.13,0,0,0,0.00
2013-10-15,61.5,55.9,52.3,53.7,51.6,49.5,95,86,71,30.16,30.09,0,0,0,0.00
2013-10-16,57.5,55.4,52.8,54.8,53.6,51.4,96,94,85,30.09,29.78,0,0,0,0.00
2013-10-17,66.1,57.6,52.5,58.2,54.7,50.8,97,90,74,29.78,29.58,0,0,0,0.01
2013-10-18,67.8,58.8,51.3,58.6,51.8,44.1,98,79,51,29.72,29.45,0,0,0,0.16
2013-10-19,61.8,52.4,41.8,52.2,45.3,37.6,88,77,59,29.82,29.63,0,0,0,0.00
2013-10-20,62.4,54.5,44.3,52.8,42.0,32.4,93,65,34,29.84,29.54,0,0,0,0.00
2013-10-21,60.9,49.5,38.0,50.5,42.4,34.7,94,77,49,29.97,29.84,0,0,0,0.00
2013-10-22,60.1,53.7,44.3,55.0,49.9,39.8,94,87,81,29.86,29.57,0,0,0,0.00
2013-10-23,52.9,44.1,34.3,42.1,38.2,32.0,96,81,56,29.65,29.46,0,0,0,0.00
2013-10-24,51.4,44.2,36.3,39.4,31.7,28.3,84,63,42,29.70,29.47,0,0,0,0.00
2013-10-25,49.9,39.7,30.7,36.5,29.9,24.5,95,70,45,29.98,29.71,0,0,0,0.00
2013-10-26,51.0,41.2,27.5,38.4,31.0,24.2,95,69,49,29.99,29.74,0,0,0,0.00
2013-10-27,56.5,47.0,35.8,41.0,36.4,27.4,93,68,45,29.89,29.66,0,0,0,0.08
2013-10-28,57.5,42.1,33.1,39.8,30.7,23.7,86,65,43,30.22,29.89,0,0,0,0.08
2013-10-29,44.6,35.1,26.9,29.0,25.0,22.0,87,68,48,30.33,30.23,0,0,0,0.00
2013-10-30,49.1,37.2,28.8,32.6,28.6,25.0,91,73,48,30.23,30.04,0,0,0,0.00
2013-10-31,54.8,42.5,29.4,54.0,40.5,27.6,97,93,85,30.12,29.65,0,0,0,0.17
2013-11-1,62.6,57.2,54.5,58.5,54.0,-99.9,98,90,72,29.65,29.24,14,1,14,0.11
2013-11-2,65.5,53.6,45.7,50.7,45.4,41.8,93,75,45,29.61,29.44,9,0,9,0.05
2013-11-3,49.5,39.9,30.4,47.6,28.1,18.5,93,64,43,30.29,29.61,15,1,15,0.00
2013-11-4,42.1,32.5,26.0,21.3,18.7,16.2,79,58,35,30.58,30.30,11,0,11,0.00
2013-11-5,47.4,36.4,25.6,35.9,29.3,20.4,90,76,55,30.58,30.38,7,0,7,0.00
2013-11-6,54.5,47.3,39.1,49.4,42.2,33.3,94,83,70,30.38,29.86,12,1,12,0.00
2013-11-7,57.0,51.2,41.9,55.3,47.4,31.2,95,87,66,29.86,29.50,12,0,12,0.03
2013-11-8,47.0,38.5,30.3,31.4,25.7,23.0,80,61,44,29.88,29.64,10,0,10,0.00
2013-11-9,46.8,36.7,30.0,29.6,22.8,20.1,72,58,37,30.01,29.88,11,0,11,0.00
2013-11-10,44.6,40.9,37.0,41.6,37.2,29.5,95,86,71,29.93,29.58,6,0,6,0.04
2013-11-11,47.0,40.8,34.1,35.7,30.2,26.7,85,66,48,29.91,29.62,10,0,10,0.00
2013-11-12,45.1,34.3,23.8,34.0,21.2,13.6,80,59,49,30.00,29.70,10,0,10,0.00
2013-11-13,36.8,26.8,19.2,16.1,13.3,10.2,77,58,36,30.11,29.97,11,0,11,0.00
2013-11-14,49.5,38.1,29.4,29.5,23.8,15.4,74,57,40,29.96,29.85,13,0,13,0.00
2013-11-15,51.9,40.5,30.3,39.1,29.5,21.4,93,67,31,30.04,29.94,9,0,10,0.00
2013-11-16,51.3,40.5,33.2,38.0,33.2,27.5,95,76,49,30.21,30.04,3,0,4,0.00
2013-11-17,52.3,45.7,36.2,51.5,44.3,34.9,98,95,86,30.21,29.78,9,0,9,0.07
2013-11-18,64.2,53.8,45.7,56.4,47.8,34.4,98,82,47,29.77,29.35,20,1,20,0.16
2013-11-19,45.5,37.0,28.2,34.4,21.8,15.0,66,54,39,30.10,29.46,13,1,13,0.00
2013-11-20,40.5,31.7,25.3,16.2,13.5,9.4,66,48,28,30.50,30.09,13,0,13,0.00
2013-11-21,46.7,33.8,20.5,28.5,19.0,10.7,82,57,27,30.50,30.21,10,0,10,0.01
2013-11-22,40.6,37.1,33.5,37.5,31.6,23.6,94,81,61,30.21,29.64,6,0,6,0.02
2013-11-23,45.2,36.4,27.2,39.2,25.0,14.2,95,66,33,29.69,29.56,10,1,13,0.01
2013-11-24,28.5,23.2,18.8,21.3,5.5,0.2,78,47,34,29.91,29.56,13,2,13,0.00
2013-11-25,34.7,24.8,16.5,15.4,2.6,-3.7,53,39,21,30.18,29.91,13,1,13,0.00
2013-11-26,35.2,32.0,28.1,32.8,24.4,13.8,95,75,49,30.18,30.00,11,0,11,0.09
2013-11-27,57.0,48.8,34.1,56.4,48.2,32.8,98,98,95,30.00,29.02,18,2,18,1.61
2013-11-28,40.5,29.7,19.9,39.7,17.9,6.9,97,63,40,30.27,29.17,14,1,14,0.00
2013-11-29,29.7,21.4,15.4,12.5,8.3,2.9,78,58,33,30.61,30.27,7,0,7,0.00
2013-11-30,32.9,22.8,14.6,25.4,14.0,6.8,80,69,53,30.69,30.29,10,0,10,0.00
2013-12-1,36.5,34.2,31.3,35.7,31.2,24.4,97,89,70,30.29,29.91,10,0,10,0.42
2013-12-2,37.6,35.6,33.7,36.8,34.8,32.9,97,97,97,29.91,29.78,6,0,6,0.04
2013-12-3,43.8,37.3,30.7,42.7,35.2,27.5,98,92,81,29.79,29.71,6,0,6,0.01
2013-12-4,40.8,31.9,26.9,30.7,26.9,25.2,95,83,61,30.08,29.77,7,0,7,0.00
2013-12-5,45.4,36.1,26.6,44.6,34.5,24.6,97,94,88,30.12,29.78,6,0,6,0.02
2013-12-6,44.2,40.3,33.8,43.7,39.6,32.7,98,97,96,30.00,29.72,3,0,3,0.13
2013-12-7,38.9,31.5,22.4,36.2,25.9,12.2,97,81,56,30.29,29.94,7,0,7,0.20
2013-12-8,30.9,25.1,19.1,17.6,13.4,10.1,76,61,44,30.44,30.29,7,0,7,0.00
2013-12-9,36.9,30.9,26.3,35.9,26.4,14.2,96,84,56,30.40,29.72,5,1,15,0.06
2013-12-10,33.8,29.2,19.9,31.7,27.2,15.6,96,92,83,29.78,29.60,7,0,7,0.01
2013-12-11,30.7,23.8,18.0,18.9,15.2,13.1,84,70,56,30.01,29.78,10,0,10,0.00
2013-12-12,22.5,15.9,8.6,18.3,4.7,-2.7,84,62,37,30.12,29.88,13,0,13,0.00
2013-12-13,25.3,16.8,7.2,11.9,4.1,-6.8,70,57,42,30.26,29.78,11,1,11,0.00
2013-12-14,17.5,10.8,3.2,15.1,0.1,-8.4,90,62,47,30.49,30.20,15,0,15,0.00
2013-12-15,20.5,16.4,10.7,18.5,13.9,7.6,92,90,87,30.20,29.26,17,2,17,0.00
2013-12-16,24.1,16.6,6.3,20.3,13.0,1.7,91,86,77,30.07,29.52,11,0,11,0.00
2013-12-17,15.1,8.3,-2.2,11.9,4.2,-7.3,89,83,78,30.16,29.88,11,0,11,0.00
2013-12-18,30.3,20.6,11.9,28.3,18.4,8.8,93,91,87,29.88,29.71,9,0,9,0.00
2013-12-19,32.2,27.5,18.4,30.6,25.8,16.2,95,93,89,29.95,29.79,10,0,10,0.00
2013-12-20,41.6,34.3,29.0,41.1,33.4,27.8,98,97,95,29.98,29.77,2,0,3,0.26
2013-12-21,41.1,35.9,32.9,40.8,35.5,32.4,99,98,98,29.82,29.70,6,0,6,0.28
2013-12-22,34.9,30.7,27.8,34.7,30.3,27.1,99,98,97,29.95,29.75,12,1,12,0.28
2013-12-23,32.7,30.5,27.8,32.2,29.9,27.1,98,98,97,29.98,29.85,11,0,11,0.12
2013-12-24,32.2,27.1,16.1,31.7,25.4,12.7,98,93,84,30.05,29.93,7,0,7,0.00
2013-12-25,20.0,13.2,6.5,12.8,7.3,1.9,86,77,67,30.40,30.05,7,0,7,0.00
2013-12-26,27.6,20.2,14.3,25.6,17.6,11.4,93,90,86,30.38,29.94,1,0,2,0.00
2013-12-27,30.9,22.1,12.8,28.1,19.3,9.7,96,89,81,30.08,30.00,3,0,6,0.03
2013-12-28,36.8,29.6,18.9,31.4,25.8,16.4,94,86,73,30.04,29.81,11,0,11,0.02
2013-12-29,39.2,32.4,26.7,36.0,30.7,25.2,96,93,85,29.88,29.36,11,0,11,0.66
2013-12-30,35.6,25.0,8.6,33.4,20.0,-0.4,96,82,60,30.06,29.37,9,0,9,0.04
2013-12-31,14.8,8.7,4.1,4.6,1.5,-2.9,84,72,55,30.05,29.91,7,0,7,0.00
2014-1-1,23.5,13.8,5.2,7.6,5.1,0.9,88,69,47,30.26,29.99,13,0,13,0.00
2014-1-2,14.3,3.3,-3.3,6.7,-2.1,-8.4,81,78,68,30.28,29.83,20,2,20,0.00